Rowell, Arkansas
Current Conditions -  °F | °C
As of 9:53 AM on Sunday 21 Dec 2014 (Local Time) from KPBF Reporting Station
Clear Clear  
Wind Chill: 39°   Ceiling: Unl
Heat Index: 43°   Visibility: 10mi
Dew Point: 36°   Wind: 7mph
Humidity: 76%   Direction: 90°E
Pressure: 30.18"   Gusts: NA
Location:  33.947°N, 92.1633°W
Report Text: KPBF 211553Z AUTO 09006KT 10SM CLR 06/02 A3018 RMK AO2 SLP220 T00610022
Loading
Personal Weather Stations






























Interactive Weather Map New forecast layout! Learn more

10-Day Weather Forecast

Advertisements
Track Severe Weather on mobile